sensor_id;sensor_type;location;lat;lon;timestamp;P1;durP1;ratioP1;P2;durP2;ratioP2
21347;SDS011;66030;53.582;9.746;2024-01-25T00:01:37;10.10;;;2.95;;
21347;SDS011;66030;53.582;9.746;2024-01-25T00:04:05;9.93;;;2.78;;
21347;SDS011;66030;53.582;9.746;2024-01-25T00:06:35;8.60;;;3.08;;
21347;SDS011;66030;53.582;9.746;2024-01-25T00:09:03;9.20;;;2.88;;
21347;SDS011;66030;53.582;9.746;2024-01-25T00:11:33;8.48;;;2.78;;
21347;SDS011;66030;53.582;9.746;2024-01-25T00:14:01;7.80;;;2.55;;
21347;SDS011;66030;53.582;9.746;2024-01-25T00:16:29;9.25;;;3.15;;
21347;SDS011;66030;53.582;9.746;2024-01-25T00:18:57;13.18;;;3.15;;
21347;SDS011;66030;53.582;9.746;2024-01-25T00:21:25;11.85;;;2.83;;
21347;SDS011;66030;53.582;9.746;2024-01-25T00:23:55;9.80;;;2.95;;
21347;SDS011;66030;53.582;9.746;2024-01-25T00:26:23;9.57;;;2.70;;
21347;SDS011;66030;53.582;9.746;2024-01-25T00:28:50;9.27;;;2.65;;
21347;SDS011;66030;53.582;9.746;2024-01-25T00:31:18;8.95;;;2.85;;
21347;SDS011;66030;53.582;9.746;2024-01-25T00:33:46;11.38;;;2.97;;
21347;SDS011;66030;53.582;9.746;2024-01-25T00:36:15;8.48;;;2.47;;
21347;SDS011;66030;53.582;9.746;2024-01-25T00:38:44;10.98;;;2.70;;
21347;SDS011;66030;53.582;9.746;2024-01-25T00:41:14;10.07;;;2.65;;
21347;SDS011;66030;53.582;9.746;2024-01-25T00:43:46;11.15;;;3.17;;
21347;SDS011;66030;53.582;9.746;2024-01-25T00:46:14;10.18;;;2.80;;
21347;SDS011;66030;53.582;9.746;2024-01-25T00:48:43;11.80;;;2.95;;
21347;SDS011;66030;53.582;9.746;2024-01-25T00:51:14;7.40;;;2.58;;
21347;SDS011;66030;53.582;9.746;2024-01-25T00:53:43;6.45;;;2.22;;
21347;SDS011;66030;53.582;9.746;2024-01-25T00:56:11;10.05;;;2.67;;
21347;SDS011;66030;53.582;9.746;2024-01-25T00:58:41;8.70;;;2.40;;
21347;SDS011;66030;53.582;9.746;2024-01-25T01:01:10;10.85;;;2.75;;
21347;SDS011;66030;53.582;9.746;2024-01-25T01:03:38;8.10;;;2.42;;
21347;SDS011;66030;53.582;9.746;2024-01-25T01:06:07;8.02;;;2.22;;
21347;SDS011;66030;53.582;9.746;2024-01-25T01:08:35;7.55;;;2.55;;
21347;SDS011;66030;53.582;9.746;2024-01-25T01:11:04;8.35;;;2.40;;
21347;SDS011;66030;53.582;9.746;2024-01-25T01:13:33;10.23;;;2.85;;
21347;SDS011;66030;53.582;9.746;2024-01-25T01:16:01;8.60;;;2.47;;
21347;SDS011;66030;53.582;9.746;2024-01-25T01:18:29;8.95;;;2.80;;
21347;SDS011;66030;53.582;9.746;2024-01-25T01:20:57;9.82;;;3.10;;
21347;SDS011;66030;53.582;9.746;2024-01-25T01:23:26;8.20;;;2.22;;
21347;SDS011;66030;53.582;9.746;2024-01-25T01:25:54;8.02;;;2.17;;
21347;SDS011;66030;53.582;9.746;2024-01-25T01:28:21;7.03;;;2.25;;
21347;SDS011;66030;53.582;9.746;2024-01-25T01:30:51;7.43;;;2.42;;
21347;SDS011;66030;53.582;9.746;2024-01-25T01:33:19;9.38;;;2.20;;
21347;SDS011;66030;53.582;9.746;2024-01-25T01:35:46;8.48;;;2.13;;
21347;SDS011;66030;53.582;9.746;2024-01-25T01:38:14;9.13;;;2.45;;
21347;SDS011;66030;53.582;9.746;2024-01-25T01:40:44;10.05;;;2.65;;
21347;SDS011;66030;53.582;9.746;2024-01-25T01:43:17;7.57;;;2.10;;
21347;SDS011;66030;53.582;9.746;2024-01-25T01:45:46;6.50;;;2.05;;
21347;SDS011;66030;53.582;9.746;2024-01-25T01:48:15;8.43;;;2.30;;
21347;SDS011;66030;53.582;9.746;2024-01-25T01:50:43;10.00;;;2.17;;
21347;SDS011;66030;53.582;9.746;2024-01-25T01:53:12;8.32;;;2.28;;
21347;SDS011;66030;53.582;9.746;2024-01-25T01:55:40;12.23;;;2.70;;
21347;SDS011;66030;53.582;9.746;2024-01-25T01:58:08;7.38;;;2.20;;
21347;SDS011;66030;53.582;9.746;2024-01-25T02:00:37;9.95;;;2.10;;
21347;SDS011;66030;53.582;9.746;2024-01-25T02:03:06;8.48;;;1.98;;
21347;SDS011;66030;53.582;9.746;2024-01-25T02:05:35;8.35;;;2.20;;
21347;SDS011;66030;53.582;9.746;2024-01-25T02:08:03;10.40;;;2.60;;
21347;SDS011;66030;53.582;9.746;2024-01-25T02:10:31;8.75;;;2.08;;
21347;SDS011;66030;53.582;9.746;2024-01-25T02:12:59;10.05;;;2.25;;
21347;SDS011;66030;53.582;9.746;2024-01-25T02:15:27;8.13;;;2.05;;
21347;SDS011;66030;53.582;9.746;2024-01-25T02:17:55;5.97;;;2.25;;
21347;SDS011;66030;53.582;9.746;2024-01-25T02:20:24;5.50;;;2.08;;
21347;SDS011;66030;53.582;9.746;2024-01-25T02:22:53;6.95;;;2.42;;
21347;SDS011;66030;53.582;9.746;2024-01-25T02:25:21;10.32;;;2.40;;
21347;SDS011;66030;53.582;9.746;2024-01-25T02:27:50;5.22;;;1.40;;
21347;SDS011;66030;53.582;9.746;2024-01-25T02:30:17;8.25;;;2.10;;
21347;SDS011;66030;53.582;9.746;2024-01-25T02:32:45;8.13;;;1.85;;
21347;SDS011;66030;53.582;9.746;2024-01-25T02:35:13;9.32;;;2.00;;
21347;SDS011;66030;53.582;9.746;2024-01-25T02:37:42;6.72;;;1.92;;
21347;SDS011;66030;53.582;9.746;2024-01-25T02:40:12;7.20;;;2.20;;
21347;SDS011;66030;53.582;9.746;2024-01-25T02:42:40;10.27;;;2.45;;
21347;SDS011;66030;53.582;9.746;2024-01-25T02:45:08;10.48;;;1.98;;
21347;SDS011;66030;53.582;9.746;2024-01-25T02:47:36;6.70;;;2.05;;
21347;SDS011;66030;53.582;9.746;2024-01-25T02:50:05;7.25;;;2.13;;
21347;SDS011;66030;53.582;9.746;2024-01-25T02:52:34;12.85;;;1.83;;
21347;SDS011;66030;53.582;9.746;2024-01-25T02:55:02;6.03;;;1.90;;
21347;SDS011;66030;53.582;9.746;2024-01-25T02:57:31;9.30;;;2.05;;
21347;SDS011;66030;53.582;9.746;2024-01-25T02:59:59;6.30;;;2.17;;
21347;SDS011;66030;53.582;9.746;2024-01-25T03:02:27;8.20;;;2.63;;
21347;SDS011;66030;53.582;9.746;2024-01-25T03:04:55;8.10;;;1.90;;
21347;SDS011;66030;53.582;9.746;2024-01-25T03:07:23;8.43;;;1.88;;
21347;SDS011;66030;53.582;9.746;2024-01-25T03:09:51;8.73;;;2.58;;
21347;SDS011;66030;53.582;9.746;2024-01-25T03:12:19;5.68;;;1.40;;
21347;SDS011;66030;53.582;9.746;2024-01-25T03:14:49;7.40;;;1.75;;
21347;SDS011;66030;53.582;9.746;2024-01-25T03:17:17;8.57;;;2.08;;
21347;SDS011;66030;53.582;9.746;2024-01-25T03:19:45;6.97;;;1.70;;
21347;SDS011;66030;53.582;9.746;2024-01-25T03:22:14;6.47;;;1.80;;
21347;SDS011;66030;53.582;9.746;2024-01-25T03:24:42;5.93;;;2.13;;
21347;SDS011;66030;53.582;9.746;2024-01-25T03:27:10;5.45;;;1.60;;
21347;SDS011;66030;53.582;9.746;2024-01-25T03:29:40;8.52;;;2.30;;
21347;SDS011;66030;53.582;9.746;2024-01-25T03:32:10;5.78;;;1.92;;
21347;SDS011;66030;53.582;9.746;2024-01-25T03:34:38;5.47;;;1.60;;
21347;SDS011;66030;53.582;9.746;2024-01-25T03:37:07;7.72;;;2.05;;
21347;SDS011;66030;53.582;9.746;2024-01-25T03:39:34;7.47;;;1.75;;
21347;SDS011;66030;53.582;9.746;2024-01-25T03:42:03;8.20;;;2.10;;
21347;SDS011;66030;53.582;9.746;2024-01-25T03:44:31;6.18;;;1.58;;
21347;SDS011;66030;53.582;9.746;2024-01-25T03:46:59;5.18;;;1.90;;
21347;SDS011;66030;53.582;9.746;2024-01-25T03:49:28;6.78;;;1.50;;
21347;SDS011;66030;53.582;9.746;2024-01-25T03:51:56;7.53;;;2.30;;
21347;SDS011;66030;53.582;9.746;2024-01-25T03:54:24;7.03;;;1.80;;
21347;SDS011;66030;53.582;9.746;2024-01-25T03:56:52;6.72;;;1.50;;
21347;SDS011;66030;53.582;9.746;2024-01-25T03:59:20;7.30;;;2.00;;
21347;SDS011;66030;53.582;9.746;2024-01-25T04:01:48;9.88;;;2.25;;
21347;SDS011;66030;53.582;9.746;2024-01-25T04:04:16;6.35;;;1.67;;
21347;SDS011;66030;53.582;9.746;2024-01-25T04:06:46;6.85;;;1.58;;
21347;SDS011;66030;53.582;9.746;2024-01-25T04:09:14;5.90;;;1.83;;
21347;SDS011;66030;53.582;9.746;2024-01-25T04:11:42;5.95;;;1.50;;
21347;SDS011;66030;53.582;9.746;2024-01-25T04:14:10;5.05;;;1.67;;
21347;SDS011;66030;53.582;9.746;2024-01-25T04:16:38;7.75;;;1.77;;
21347;SDS011;66030;53.582;9.746;2024-01-25T04:19:07;5.75;;;1.35;;
21347;SDS011;66030;53.582;9.746;2024-01-25T04:21:38;7.22;;;1.50;;
21347;SDS011;66030;53.582;9.746;2024-01-25T04:24:08;6.47;;;2.10;;
21347;SDS011;66030;53.582;9.746;2024-01-25T04:26:36;4.88;;;1.70;;
21347;SDS011;66030;53.582;9.746;2024-01-25T04:29:03;9.30;;;1.75;;
21347;SDS011;66030;53.582;9.746;2024-01-25T04:31:32;5.10;;;2.00;;
21347;SDS011;66030;53.582;9.746;2024-01-25T04:34:00;7.60;;;2.00;;
21347;SDS011;66030;53.582;9.746;2024-01-25T04:36:28;10.88;;;2.55;;
21347;SDS011;66030;53.582;9.746;2024-01-25T04:38:56;7.50;;;1.73;;
21347;SDS011;66030;53.582;9.746;2024-01-25T04:41:25;8.77;;;2.15;;
21347;SDS011;66030;53.582;9.746;2024-01-25T04:43:53;6.05;;;1.70;;
21347;SDS011;66030;53.582;9.746;2024-01-25T04:46:21;4.90;;;1.73;;
21347;SDS011;66030;53.582;9.746;2024-01-25T04:48:49;7.03;;;1.40;;
21347;SDS011;66030;53.582;9.746;2024-01-25T04:51:18;5.68;;;1.30;;
21347;SDS011;66030;53.582;9.746;2024-01-25T04:53:46;5.88;;;1.60;;
21347;SDS011;66030;53.582;9.746;2024-01-25T04:56:14;6.50;;;1.73;;
21347;SDS011;66030;53.582;9.746;2024-01-25T04:58:43;4.50;;;1.42;;
21347;SDS011;66030;53.582;9.746;2024-01-25T05:01:11;6.53;;;2.10;;
21347;SDS011;66030;53.582;9.746;2024-01-25T05:03:39;4.57;;;1.30;;
21347;SDS011;66030;53.582;9.746;2024-01-25T05:06:07;6.30;;;1.55;;
21347;SDS011;66030;53.582;9.746;2024-01-25T05:08:35;5.40;;;1.42;;
21347;SDS011;66030;53.582;9.746;2024-01-25T05:11:03;6.75;;;1.67;;
21347;SDS011;66030;53.582;9.746;2024-01-25T05:13:33;6.47;;;1.85;;
21347;SDS011;66030;53.582;9.746;2024-01-25T05:16:03;5.72;;;1.17;;
21347;SDS011;66030;53.582;9.746;2024-01-25T05:18:31;5.28;;;1.33;;
21347;SDS011;66030;53.582;9.746;2024-01-25T05:20:59;3.70;;;1.23;;
21347;SDS011;66030;53.582;9.746;2024-01-25T05:23:27;7.93;;;1.50;;
21347;SDS011;66030;53.582;9.746;2024-01-25T05:25:55;5.35;;;1.30;;
21347;SDS011;66030;53.582;9.746;2024-01-25T05:28:23;4.40;;;1.40;;
21347;SDS011;66030;53.582;9.746;2024-01-25T05:30:51;5.93;;;1.48;;
21347;SDS011;66030;53.582;9.746;2024-01-25T05:33:20;5.50;;;1.23;;
21347;SDS011;66030;53.582;9.746;2024-01-25T05:35:48;6.05;;;1.40;;
21347;SDS011;66030;53.582;9.746;2024-01-25T05:38:16;3.83;;;1.13;;
21347;SDS011;66030;53.582;9.746;2024-01-25T05:40:44;5.63;;;1.48;;
21347;SDS011;66030;53.582;9.746;2024-01-25T05:43:12;8.23;;;1.80;;
21347;SDS011;66030;53.582;9.746;2024-01-25T05:45:40;6.20;;;1.50;;
21347;SDS011;66030;53.582;9.746;2024-01-25T05:48:08;5.10;;;1.30;;
21347;SDS011;66030;53.582;9.746;2024-01-25T05:50:37;3.88;;;1.00;;
21347;SDS011;66030;53.582;9.746;2024-01-25T05:53:05;3.38;;;1.20;;
21347;SDS011;66030;53.582;9.746;2024-01-25T05:55:33;3.85;;;0.93;;
21347;SDS011;66030;53.582;9.746;2024-01-25T05:58:01;6.82;;;1.55;;
21347;SDS011;66030;53.582;9.746;2024-01-25T06:00:29;9.50;;;1.80;;
21347;SDS011;66030;53.582;9.746;2024-01-25T06:02:57;7.63;;;1.58;;
21347;SDS011;66030;53.582;9.746;2024-01-25T06:05:25;8.23;;;1.63;;
21347;SDS011;66030;53.582;9.746;2024-01-25T06:07:55;4.45;;;1.02;;
21347;SDS011;66030;53.582;9.746;2024-01-25T06:10:23;6.72;;;1.73;;
21347;SDS011;66030;53.582;9.746;2024-01-25T06:12:51;4.22;;;0.95;;
21347;SDS011;66030;53.582;9.746;2024-01-25T06:15:19;8.82;;;1.40;;
21347;SDS011;66030;53.582;9.746;2024-01-25T06:17:47;7.45;;;1.45;;
21347;SDS011;66030;53.582;9.746;2024-01-25T06:20:15;6.50;;;1.58;;
21347;SDS011;66030;53.582;9.746;2024-01-25T06:22:43;5.95;;;1.35;;
21347;SDS011;66030;53.582;9.746;2024-01-25T06:25:12;5.90;;;1.30;;
21347;SDS011;66030;53.582;9.746;2024-01-25T06:27:41;13.77;;;3.42;;
21347;SDS011;66030;53.582;9.746;2024-01-25T06:30:09;8.18;;;2.03;;
21347;SDS011;66030;53.582;9.746;2024-01-25T06:32:38;7.93;;;1.70;;
21347;SDS011;66030;53.582;9.746;2024-01-25T06:35:06;5.97;;;2.20;;
21347;SDS011;66030;53.582;9.746;2024-01-25T06:40:04;8.73;;;1.60;;
21347;SDS011;66030;53.582;9.746;2024-01-25T06:42:35;7.05;;;1.58;;
21347;SDS011;66030;53.582;9.746;2024-01-25T06:45:05;11.88;;;2.28;;
21347;SDS011;66030;53.582;9.746;2024-01-25T06:47:33;15.32;;;2.40;;
21347;SDS011;66030;53.582;9.746;2024-01-25T06:50:01;9.30;;;2.00;;
21347;SDS011;66030;53.582;9.746;2024-01-25T06:52:29;10.38;;;1.80;;
21347;SDS011;66030;53.582;9.746;2024-01-25T06:54:57;6.93;;;1.73;;
21347;SDS011;66030;53.582;9.746;2024-01-25T06:57:25;11.48;;;2.13;;
21347;SDS011;66030;53.582;9.746;2024-01-25T06:59:55;6.10;;;2.03;;
21347;SDS011;66030;53.582;9.746;2024-01-25T07:02:23;10.50;;;2.15;;
21347;SDS011;66030;53.582;9.746;2024-01-25T07:04:51;9.75;;;2.47;;
21347;SDS011;66030;53.582;9.746;2024-01-25T07:07:20;9.25;;;2.78;;
21347;SDS011;66030;53.582;9.746;2024-01-25T07:09:49;11.43;;;2.50;;
21347;SDS011;66030;53.582;9.746;2024-01-25T07:12:17;16.40;;;2.97;;
21347;SDS011;66030;53.582;9.746;2024-01-25T07:14:45;11.85;;;2.60;;
21347;SDS011;66030;53.582;9.746;2024-01-25T07:17:14;8.88;;;2.00;;
21347;SDS011;66030;53.582;9.746;2024-01-25T07:19:42;10.68;;;2.40;;
21347;SDS011;66030;53.582;9.746;2024-01-25T07:22:10;9.20;;;2.30;;
21347;SDS011;66030;53.582;9.746;2024-01-25T07:24:40;8.80;;;2.33;;
21347;SDS011;66030;53.582;9.746;2024-01-25T07:27:08;11.88;;;2.22;;
21347;SDS011;66030;53.582;9.746;2024-01-25T07:29:37;10.35;;;2.30;;
21347;SDS011;66030;53.582;9.746;2024-01-25T07:32:05;13.70;;;2.22;;
21347;SDS011;66030;53.582;9.746;2024-01-25T07:34:35;7.13;;;1.95;;
21347;SDS011;66030;53.582;9.746;2024-01-25T07:37:03;7.90;;;1.77;;
21347;SDS011;66030;53.582;9.746;2024-01-25T07:39:31;10.80;;;2.65;;
21347;SDS011;66030;53.582;9.746;2024-01-25T07:41:59;7.93;;;2.53;;
21347;SDS011;66030;53.582;9.746;2024-01-25T07:44:27;9.02;;;2.10;;
21347;SDS011;66030;53.582;9.746;2024-01-25T07:46:55;8.27;;;1.98;;
21347;SDS011;66030;53.582;9.746;2024-01-25T07:49:23;7.15;;;1.88;;
21347;SDS011;66030;53.582;9.746;2024-01-25T07:51:52;10.35;;;2.15;;
21347;SDS011;66030;53.582;9.746;2024-01-25T07:54:22;6.57;;;2.00;;
21347;SDS011;66030;53.582;9.746;2024-01-25T07:56:50;4.68;;;1.60;;
21347;SDS011;66030;53.582;9.746;2024-01-25T07:59:17;7.05;;;1.92;;
21347;SDS011;66030;53.582;9.746;2024-01-25T08:01:45;7.78;;;1.63;;
21347;SDS011;66030;53.582;9.746;2024-01-25T08:04:13;8.95;;;1.80;;
21347;SDS011;66030;53.582;9.746;2024-01-25T08:06:41;6.78;;;1.70;;
21347;SDS011;66030;53.582;9.746;2024-01-25T08:09:10;9.57;;;1.65;;
21347;SDS011;66030;53.582;9.746;2024-01-25T08:11:39;9.30;;;1.95;;
21347;SDS011;66030;53.582;9.746;2024-01-25T08:14:06;8.05;;;1.70;;
21347;SDS011;66030;53.582;9.746;2024-01-25T08:16:34;7.15;;;1.40;;
21347;SDS011;66030;53.582;9.746;2024-01-25T08:19:03;5.93;;;1.67;;
21347;SDS011;66030;53.582;9.746;2024-01-25T08:21:31;14.02;;;1.95;;
21347;SDS011;66030;53.582;9.746;2024-01-25T08:24:02;7.78;;;1.52;;
21347;SDS011;66030;53.582;9.746;2024-01-25T08:26:32;6.55;;;1.40;;
21347;SDS011;66030;53.582;9.746;2024-01-25T08:29:00;8.43;;;1.23;;
21347;SDS011;66030;53.582;9.746;2024-01-25T08:31:28;5.32;;;1.75;;
21347;SDS011;66030;53.582;9.746;2024-01-25T08:33:56;11.50;;;2.05;;
21347;SDS011;66030;53.582;9.746;2024-01-25T08:36:24;7.57;;;1.63;;
21347;SDS011;66030;53.582;9.746;2024-01-25T08:38:52;11.18;;;2.03;;
21347;SDS011;66030;53.582;9.746;2024-01-25T08:41:20;5.65;;;1.42;;
21347;SDS011;66030;53.582;9.746;2024-01-25T08:43:49;9.25;;;2.30;;
21347;SDS011;66030;53.582;9.746;2024-01-25T08:46:17;6.43;;;1.83;;
21347;SDS011;66030;53.582;9.746;2024-01-25T08:48:45;6.60;;;1.48;;
21347;SDS011;66030;53.582;9.746;2024-01-25T08:51:13;8.93;;;1.80;;
21347;SDS011;66030;53.582;9.746;2024-01-25T08:53:41;7.25;;;1.42;;
21347;SDS011;66030;53.582;9.746;2024-01-25T08:56:09;6.85;;;1.33;;
21347;SDS011;66030;53.582;9.746;2024-01-25T08:58:37;6.13;;;1.75;;
21347;SDS011;66030;53.582;9.746;2024-01-25T09:01:06;6.03;;;1.15;;
21347;SDS011;66030;53.582;9.746;2024-01-25T09:03:34;9.05;;;1.55;;
21347;SDS011;66030;53.582;9.746;2024-01-25T09:06:02;10.10;;;1.70;;
21347;SDS011;66030;53.582;9.746;2024-01-25T09:08:33;6.00;;;1.50;;
21347;SDS011;66030;53.582;9.746;2024-01-25T09:11:01;9.25;;;1.83;;
21347;SDS011;66030;53.582;9.746;2024-01-25T09:13:29;6.78;;;1.55;;
21347;SDS011;66030;53.582;9.746;2024-01-25T09:15:58;4.68;;;1.40;;
21347;SDS011;66030;53.582;9.746;2024-01-25T09:18:28;8.82;;;1.98;;
21347;SDS011;66030;53.582;9.746;2024-01-25T09:20:56;10.63;;;1.50;;
21347;SDS011;66030;53.582;9.746;2024-01-25T09:23:24;5.57;;;1.38;;
21347;SDS011;66030;53.582;9.746;2024-01-25T09:25:52;5.18;;;1.33;;
21347;SDS011;66030;53.582;9.746;2024-01-25T09:28:19;7.78;;;1.38;;
21347;SDS011;66030;53.582;9.746;2024-01-25T09:30:47;5.20;;;1.73;;
21347;SDS011;66030;53.582;9.746;2024-01-25T09:33:17;5.85;;;1.52;;
21347;SDS011;66030;53.582;9.746;2024-01-25T09:35:47;7.25;;;2.00;;
21347;SDS011;66030;53.582;9.746;2024-01-25T09:38:16;5.80;;;1.38;;
21347;SDS011;66030;53.582;9.746;2024-01-25T09:40:44;5.13;;;1.48;;
21347;SDS011;66030;53.582;9.746;2024-01-25T09:43:12;7.38;;;1.83;;
21347;SDS011;66030;53.582;9.746;2024-01-25T09:45:40;5.78;;;1.33;;
21347;SDS011;66030;53.582;9.746;2024-01-25T09:48:09;6.07;;;1.40;;
21347;SDS011;66030;53.582;9.746;2024-01-25T09:50:39;5.18;;;1.17;;
21347;SDS011;66030;53.582;9.746;2024-01-25T09:53:08;5.00;;;1.77;;
21347;SDS011;66030;53.582;9.746;2024-01-25T09:55:39;6.32;;;1.67;;
21347;SDS011;66030;53.582;9.746;2024-01-25T09:58:11;4.15;;;1.17;;
21347;SDS011;66030;53.582;9.746;2024-01-25T10:00:39;8.45;;;1.48;;
21347;SDS011;66030;53.582;9.746;2024-01-25T10:03:09;5.45;;;1.35;;
21347;SDS011;66030;53.582;9.746;2024-01-25T10:05:37;6.68;;;1.60;;
21347;SDS011;66030;53.582;9.746;2024-01-25T10:08:11;5.38;;;1.35;;
21347;SDS011;66030;53.582;9.746;2024-01-25T10:10:41;5.70;;;1.35;;
21347;SDS011;66030;53.582;9.746;2024-01-25T10:13:11;5.30;;;2.00;;
21347;SDS011;66030;53.582;9.746;2024-01-25T10:18:10;5.38;;;1.05;;
21347;SDS011;66030;53.582;9.746;2024-01-25T10:20:54;5.22;;;1.10;;
21347;SDS011;66030;53.582;9.746;2024-01-25T10:23:24;4.47;;;1.25;;
21347;SDS011;66030;53.582;9.746;2024-01-25T10:25:53;6.93;;;1.70;;
21347;SDS011;66030;53.582;9.746;2024-01-25T10:28:21;5.13;;;1.38;;
21347;SDS011;66030;53.582;9.746;2024-01-25T10:30:55;6.47;;;1.70;;
21347;SDS011;66030;53.582;9.746;2024-01-25T10:33:24;6.22;;;1.08;;
21347;SDS011;66030;53.582;9.746;2024-01-25T10:35:54;9.10;;;1.77;;
21347;SDS011;66030;53.582;9.746;2024-01-25T10:38:30;7.13;;;1.20;;
21347;SDS011;66030;53.582;9.746;2024-01-25T10:40:59;4.07;;;1.10;;
21347;SDS011;66030;53.582;9.746;2024-01-25T10:43:28;5.57;;;1.50;;
21347;SDS011;66030;53.582;9.746;2024-01-25T10:45:59;4.15;;;1.05;;
21347;SDS011;66030;53.582;9.746;2024-01-25T10:48:30;4.70;;;1.50;;
21347;SDS011;66030;53.582;9.746;2024-01-25T10:50:58;4.20;;;1.20;;
21347;SDS011;66030;53.582;9.746;2024-01-25T10:53:31;7.38;;;1.42;;
21347;SDS011;66030;53.582;9.746;2024-01-25T10:56:01;3.95;;;1.35;;
21347;SDS011;66030;53.582;9.746;2024-01-25T10:58:30;5.57;;;1.23;;
21347;SDS011;66030;53.582;9.746;2024-01-25T11:01:07;5.63;;;1.92;;
21347;SDS011;66030;53.582;9.746;2024-01-25T11:03:42;5.53;;;1.35;;
21347;SDS011;66030;53.582;9.746;2024-01-25T11:06:13;3.97;;;1.13;;
21347;SDS011;66030;53.582;9.746;2024-01-25T11:08:42;6.10;;;1.00;;
21347;SDS011;66030;53.582;9.746;2024-01-25T11:11:11;4.90;;;1.27;;
21347;SDS011;66030;53.582;9.746;2024-01-25T11:13:41;4.47;;;1.05;;
21347;SDS011;66030;53.582;9.746;2024-01-25T11:16:13;3.90;;;1.05;;
21347;SDS011;66030;53.582;9.746;2024-01-25T11:18:48;5.32;;;1.30;;
21347;SDS011;66030;53.582;9.746;2024-01-25T11:21:27;6.47;;;1.90;;
21347;SDS011;66030;53.582;9.746;2024-01-25T11:24:04;4.78;;;0.93;;
21347;SDS011;66030;53.582;9.746;2024-01-25T11:26:32;5.07;;;1.30;;
21347;SDS011;66030;53.582;9.746;2024-01-25T11:29:00;7.30;;;1.60;;
21347;SDS011;66030;53.582;9.746;2024-01-25T11:31:29;6.60;;;1.30;;
21347;SDS011;66030;53.582;9.746;2024-01-25T11:33:58;5.28;;;1.70;;
21347;SDS011;66030;53.582;9.746;2024-01-25T11:36:27;6.97;;;1.25;;
21347;SDS011;66030;53.582;9.746;2024-01-25T11:38:56;4.55;;;1.10;;
21347;SDS011;66030;53.582;9.746;2024-01-25T11:41:26;3.92;;;1.00;;
21347;SDS011;66030;53.582;9.746;2024-01-25T11:43:54;3.80;;;1.33;;
21347;SDS011;66030;53.582;9.746;2024-01-25T11:46:22;7.25;;;1.10;;
21347;SDS011;66030;53.582;9.746;2024-01-25T11:48:51;6.85;;;1.15;;
21347;SDS011;66030;53.582;9.746;2024-01-25T11:51:19;4.15;;;1.10;;
21347;SDS011;66030;53.582;9.746;2024-01-25T11:53:47;5.95;;;1.20;;
21347;SDS011;66030;53.582;9.746;2024-01-25T11:56:16;2.55;;;0.95;;
21347;SDS011;66030;53.582;9.746;2024-01-25T11:58:48;4.65;;;1.33;;
21347;SDS011;66030;53.582;9.746;2024-01-25T12:01:17;6.95;;;1.58;;
21347;SDS011;66030;53.582;9.746;2024-01-25T12:03:47;7.97;;;1.52;;
21347;SDS011;66030;53.582;9.746;2024-01-25T12:06:15;6.50;;;1.23;;
21347;SDS011;66030;53.582;9.746;2024-01-25T12:08:44;6.78;;;1.42;;
21347;SDS011;66030;53.582;9.746;2024-01-25T12:11:14;6.47;;;1.20;;
21347;SDS011;66030;53.582;9.746;2024-01-25T12:13:43;4.53;;;0.90;;
21347;SDS011;66030;53.582;9.746;2024-01-25T12:16:13;5.03;;;1.23;;
21347;SDS011;66030;53.582;9.746;2024-01-25T12:18:42;4.43;;;1.00;;
21347;SDS011;66030;53.582;9.746;2024-01-25T12:21:11;5.03;;;1.13;;
21347;SDS011;66030;53.582;9.746;2024-01-25T12:23:40;5.35;;;0.90;;
21347;SDS011;66030;53.582;9.746;2024-01-25T12:26:10;5.00;;;1.17;;
21347;SDS011;66030;53.582;9.746;2024-01-25T12:28:39;3.58;;;0.90;;
21347;SDS011;66030;53.582;9.746;2024-01-25T12:31:08;5.20;;;1.08;;
21347;SDS011;66030;53.582;9.746;2024-01-25T12:33:37;7.13;;;1.60;;
21347;SDS011;66030;53.582;9.746;2024-01-25T12:36:06;4.47;;;1.05;;
21347;SDS011;66030;53.582;9.746;2024-01-25T12:38:34;4.88;;;1.30;;
21347;SDS011;66030;53.582;9.746;2024-01-25T12:41:03;4.85;;;1.10;;
21347;SDS011;66030;53.582;9.746;2024-01-25T12:43:31;4.65;;;0.90;;
21347;SDS011;66030;53.582;9.746;2024-01-25T12:45:59;6.45;;;1.48;;
21347;SDS011;66030;53.582;9.746;2024-01-25T12:48:48;4.18;;;1.00;;
21347;SDS011;66030;53.582;9.746;2024-01-25T12:51:21;5.22;;;1.23;;
21347;SDS011;66030;53.582;9.746;2024-01-25T12:53:49;4.10;;;0.93;;
21347;SDS011;66030;53.582;9.746;2024-01-25T12:56:17;3.85;;;1.10;;
21347;SDS011;66030;53.582;9.746;2024-01-25T12:58:45;2.35;;;0.80;;
21347;SDS011;66030;53.582;9.746;2024-01-25T13:01:13;5.78;;;1.77;;
21347;SDS011;66030;53.582;9.746;2024-01-25T13:03:42;6.32;;;1.10;;
21347;SDS011;66030;53.582;9.746;2024-01-25T13:06:14;2.83;;;1.40;;
21347;SDS011;66030;53.582;9.746;2024-01-25T13:08:43;5.63;;;1.13;;
21347;SDS011;66030;53.582;9.746;2024-01-25T13:11:11;3.50;;;0.93;;
21347;SDS011;66030;53.582;9.746;2024-01-25T13:13:39;3.22;;;0.75;;
21347;SDS011;66030;53.582;9.746;2024-01-25T13:16:07;4.03;;;1.40;;
21347;SDS011;66030;53.582;9.746;2024-01-25T13:18:35;4.25;;;0.90;;
21347;SDS011;66030;53.582;9.746;2024-01-25T13:21:03;4.15;;;0.95;;
21347;SDS011;66030;53.582;9.746;2024-01-25T13:23:33;3.03;;;0.85;;
21347;SDS011;66030;53.582;9.746;2024-01-25T13:26:01;4.15;;;1.23;;
21347;SDS011;66030;53.582;9.746;2024-01-25T13:28:29;3.45;;;0.95;;
21347;SDS011;66030;53.582;9.746;2024-01-25T13:30:57;3.80;;;0.98;;
21347;SDS011;66030;53.582;9.746;2024-01-25T13:33:26;8.73;;;1.42;;
21347;SDS011;66030;53.582;9.746;2024-01-25T13:35:54;4.82;;;1.13;;
21347;SDS011;66030;53.582;9.746;2024-01-25T13:38:22;3.58;;;0.80;;
21347;SDS011;66030;53.582;9.746;2024-01-25T13:40:52;4.40;;;1.05;;
21347;SDS011;66030;53.582;9.746;2024-01-25T13:43:19;3.35;;;1.05;;
21347;SDS011;66030;53.582;9.746;2024-01-25T13:45:47;4.13;;;0.90;;
21347;SDS011;66030;53.582;9.746;2024-01-25T13:48:15;3.47;;;0.90;;
21347;SDS011;66030;53.582;9.746;2024-01-25T13:50:44;5.25;;;0.77;;
21347;SDS011;66030;53.582;9.746;2024-01-25T13:53:12;4.82;;;1.10;;
21347;SDS011;66030;53.582;9.746;2024-01-25T13:55:40;5.43;;;1.10;;
21347;SDS011;66030;53.582;9.746;2024-01-25T13:58:09;4.30;;;1.08;;
21347;SDS011;66030;53.582;9.746;2024-01-25T14:00:37;4.00;;;0.85;;
21347;SDS011;66030;53.582;9.746;2024-01-25T14:03:05;3.53;;;0.98;;
21347;SDS011;66030;53.582;9.746;2024-01-25T14:05:33;2.70;;;0.82;;
21347;SDS011;66030;53.582;9.746;2024-01-25T14:08:02;6.25;;;1.08;;
21347;SDS011;66030;53.582;9.746;2024-01-25T14:10:30;3.75;;;0.80;;
21347;SDS011;66030;53.582;9.746;2024-01-25T14:15:30;3.67;;;0.80;;
21347;SDS011;66030;53.582;9.746;2024-01-25T14:17:58;3.83;;;0.60;;
21347;SDS011;66030;53.582;9.746;2024-01-25T14:20:26;5.88;;;0.93;;
21347;SDS011;66030;53.582;9.746;2024-01-25T14:22:55;5.55;;;1.40;;
21347;SDS011;66030;53.582;9.746;2024-01-25T14:25:23;7.53;;;1.00;;
21347;SDS011;66030;53.582;9.746;2024-01-25T14:27:52;7.60;;;1.85;;
21347;SDS011;66030;53.582;9.746;2024-01-25T14:30:23;5.82;;;1.20;;
21347;SDS011;66030;53.582;9.746;2024-01-25T14:32:54;6.38;;;1.48;;
21347;SDS011;66030;53.582;9.746;2024-01-25T14:35:23;5.20;;;1.35;;
21347;SDS011;66030;53.582;9.746;2024-01-25T14:37:54;3.88;;;0.98;;
21347;SDS011;66030;53.582;9.746;2024-01-25T14:40:22;4.50;;;0.93;;
21347;SDS011;66030;53.582;9.746;2024-01-25T14:43:11;6.28;;;1.40;;
21347;SDS011;66030;53.582;9.746;2024-01-25T14:45:39;4.70;;;1.13;;
21347;SDS011;66030;53.582;9.746;2024-01-25T14:48:08;8.65;;;1.63;;
21347;SDS011;66030;53.582;9.746;2024-01-25T14:50:36;4.97;;;1.10;;
21347;SDS011;66030;53.582;9.746;2024-01-25T14:53:04;5.53;;;1.90;;
21347;SDS011;66030;53.582;9.746;2024-01-25T14:55:32;6.50;;;1.17;;
21347;SDS011;66030;53.582;9.746;2024-01-25T14:58:00;6.90;;;1.27;;
21347;SDS011;66030;53.582;9.746;2024-01-25T15:00:28;5.82;;;1.40;;
21347;SDS011;66030;53.582;9.746;2024-01-25T15:02:56;4.28;;;1.05;;